createdAt,value
2023-03-29T00:01:42.570Z,35.38
2023-03-29T00:04:14.164Z,18.95
2023-03-29T00:06:43.325Z,18.50
2023-03-29T00:09:13.219Z,23.08
2023-03-29T00:11:42.534Z,18.70
2023-03-29T00:14:11.902Z,19.73
2023-03-29T00:16:41.251Z,19.77
2023-03-29T00:19:10.691Z,23.15
2023-03-29T00:21:39.839Z,19.48
2023-03-29T00:24:08.947Z,23.45
2023-03-29T00:26:38.444Z,29.17
2023-03-29T00:29:07.494Z,18.50
2023-03-29T00:31:36.630Z,19.73
2023-03-29T00:34:05.573Z,19.33
2023-03-29T00:36:34.800Z,24.48
2023-03-29T00:39:04.857Z,24.03
2023-03-29T00:44:07.024Z,23.65
2023-03-29T00:46:36.444Z,26.63
2023-03-29T00:49:14.206Z,28.65
2023-03-29T00:51:45.075Z,23.50
2023-03-29T00:54:17.126Z,26.83
2023-03-29T00:57:06.557Z,31.73
2023-03-29T00:59:40.049Z,32.22
2023-03-29T01:07:54.846Z,21.67
2023-03-29T01:10:35.184Z,19.38
2023-03-29T01:13:11.494Z,19.70
2023-03-29T01:15:47.500Z,24.15
2023-03-29T01:32:26.514Z,17.88
2023-03-29T01:35:10.726Z,21.35
2023-03-29T01:37:53.314Z,18.13
2023-03-29T01:40:22.855Z,18.42
2023-03-29T01:43:07.925Z,22.83
2023-03-29T01:46:20.626Z,20.30
2023-03-29T01:49:16.317Z,21.23
2023-03-29T01:52:15.298Z,19.00
2023-03-29T01:54:55.132Z,18.83
2023-03-29T02:00:11.680Z,23.25
2023-03-29T02:02:48.295Z,22.05
2023-03-29T02:05:23.809Z,21.58
2023-03-29T02:07:56.861Z,20.23
2023-03-29T02:10:27.987Z,22.80
2023-03-29T02:13:00.599Z,20.70
2023-03-29T02:15:51.872Z,22.40
2023-03-29T02:21:38.218Z,23.35
2023-03-29T02:24:18.960Z,23.65
2023-03-29T02:27:43.349Z,25.45
2023-03-29T02:36:35.755Z,23.05
2023-03-29T02:39:35.575Z,20.60
2023-03-29T02:42:06.419Z,22.67
2023-03-29T02:44:37.379Z,21.98
2023-03-29T02:47:21.646Z,24.70
2023-03-29T02:49:49.832Z,20.05
2023-03-29T02:52:22.545Z,24.25
2023-03-29T02:54:53.110Z,21.88
2023-03-29T02:59:49.128Z,24.67
2023-03-29T03:02:19.572Z,19.02
2023-03-29T03:04:48.011Z,18.92
2023-03-29T03:07:20.220Z,21.85
2023-03-29T03:09:51.702Z,24.90
2023-03-29T03:12:23.763Z,21.08
2023-03-29T03:14:56.226Z,20.58
2023-03-29T03:17:25.675Z,20.38
2023-03-29T03:19:57.983Z,22.80
2023-03-29T03:22:30.479Z,21.30
2023-03-29T03:24:59.397Z,23.90
2023-03-29T03:27:35.218Z,18.05
2023-03-29T03:30:09.949Z,21.88
2023-03-29T03:35:38.700Z,17.55
2023-03-29T03:38:16.110Z,18.63
2023-03-29T03:40:44.747Z,19.50
2023-03-29T03:43:16.139Z,16.50
2023-03-29T03:45:47.728Z,18.55
2023-03-29T03:48:16.994Z,16.60
2023-03-29T03:50:57.501Z,19.08
2023-03-29T03:53:28.817Z,18.08
2023-03-29T03:56:02.535Z,18.48
2023-03-29T03:58:30.886Z,21.30
2023-03-29T04:01:00.470Z,17.50
2023-03-29T04:03:29.393Z,23.35
2023-03-29T04:06:00.254Z,20.83
2023-03-29T04:08:28.629Z,21.10
2023-03-29T04:10:58.766Z,22.73
2023-03-29T04:13:27.762Z,17.70
2023-03-29T04:16:01.498Z,20.15
2023-03-29T04:18:30.190Z,26.13
2023-03-29T04:20:59.240Z,21.58
2023-03-29T04:23:27.296Z,18.35
2023-03-29T04:25:59.544Z,18.25
2023-03-29T04:28:27.977Z,19.83
2023-03-29T04:30:56.865Z,20.98
2023-03-29T04:33:24.955Z,16.52
2023-03-29T04:35:53.140Z,17.55
2023-03-29T04:38:23.634Z,15.70
2023-03-29T04:40:52.493Z,18.70
2023-03-29T04:43:20.613Z,26.95
2023-03-29T04:48:18.030Z,17.73
2023-03-29T04:53:17.551Z,14.82
2023-03-29T04:55:50.693Z,22.73
2023-03-29T04:58:22.113Z,15.40
2023-03-29T05:01:01.718Z,16.15
2023-03-29T05:03:30.468Z,15.98
2023-03-29T05:06:16.008Z,15.70
2023-03-29T05:08:48.658Z,12.75
2023-03-29T05:11:18.010Z,13.05
2023-03-29T05:13:46.896Z,13.50
2023-03-29T05:16:18.139Z,12.07
2023-03-29T05:18:46.326Z,11.02
2023-03-29T05:21:14.807Z,11.68
2023-03-29T05:23:43.280Z,15.00
2023-03-29T05:26:14.966Z,12.27
2023-03-29T05:28:44.113Z,11.95
2023-03-29T05:31:20.334Z,17.80
2023-03-29T05:33:49.298Z,16.05
2023-03-29T05:36:19.551Z,14.32
2023-03-29T05:38:48.735Z,16.17
2023-03-29T05:41:18.237Z,12.93
2023-03-29T05:43:53.034Z,11.60
2023-03-29T05:46:21.175Z,12.30
2023-03-29T05:48:52.747Z,12.07
2023-03-29T05:51:25.011Z,15.30
2023-03-29T05:53:53.891Z,11.70
2023-03-29T05:56:28.091Z,11.43
2023-03-29T05:58:59.164Z,10.80
2023-03-29T06:02:15.039Z,13.38
2023-03-29T06:04:46.162Z,14.60
2023-03-29T06:09:52.786Z,11.70
2023-03-29T06:12:22.104Z,11.77
2023-03-29T06:14:50.266Z,12.77
2023-03-29T06:17:21.999Z,15.07
2023-03-29T06:19:50.457Z,10.82
2023-03-29T06:22:19.138Z,12.73
2023-03-29T06:24:47.486Z,15.40
2023-03-29T06:27:16.147Z,11.95
2023-03-29T06:29:44.302Z,10.48
2023-03-29T06:32:12.955Z,14.38
2023-03-29T06:34:41.409Z,14.05
2023-03-29T06:38:00.437Z,15.95
2023-03-29T06:40:32.186Z,13.82
2023-03-29T06:43:01.100Z,20.30
2023-03-29T06:45:31.879Z,14.70
2023-03-29T06:48:00.360Z,16.83
2023-03-29T06:50:31.315Z,11.68
2023-03-29T06:53:02.069Z,12.20
2023-03-29T06:55:33.204Z,14.02
2023-03-29T06:58:03.041Z,20.45
2023-03-29T07:00:35.957Z,14.23
2023-03-29T07:03:12.789Z,14.55
2023-03-29T07:05:43.050Z,14.60
2023-03-29T07:08:14.647Z,12.85
2023-03-29T07:10:49.690Z,14.05
2023-03-29T07:13:19.650Z,12.70
2023-03-29T07:15:49.839Z,14.07
2023-03-29T07:18:21.887Z,12.98
2023-03-29T07:20:50.663Z,12.82
2023-03-29T07:23:19.026Z,13.18
2023-03-29T07:25:48.157Z,14.80
2023-03-29T07:28:16.499Z,17.37
2023-03-29T07:30:44.793Z,17.13
2023-03-29T07:33:23.498Z,21.35
2023-03-29T07:35:52.384Z,13.20
2023-03-29T07:38:21.039Z,14.32
2023-03-29T07:40:49.256Z,18.33
2023-03-29T07:43:18.648Z,20.35
2023-03-29T07:45:47.135Z,15.23
2023-03-29T07:48:15.665Z,17.30
2023-03-29T07:50:44.407Z,19.90
2023-03-29T07:53:13.754Z,15.45
2023-03-29T07:55:55.185Z,15.73
2023-03-29T07:58:33.889Z,16.88
2023-03-29T08:01:02.262Z,16.35
2023-03-29T08:03:30.862Z,14.93
2023-03-29T08:06:02.331Z,19.15
2023-03-29T08:08:30.770Z,14.83
2023-03-29T08:10:59.340Z,15.90
2023-03-29T08:13:28.567Z,17.75
2023-03-29T08:15:57.640Z,14.77
2023-03-29T08:22:31.080Z,15.75
2023-03-29T08:25:00.054Z,16.58
2023-03-29T08:27:28.333Z,14.00
2023-03-29T08:29:57.428Z,13.23
2023-03-29T08:32:28.690Z,13.70
2023-03-29T08:34:56.931Z,17.27
2023-03-29T08:37:39.337Z,15.23
2023-03-29T08:40:18.896Z,17.33
2023-03-29T08:43:31.892Z,17.00
2023-03-29T08:46:10.869Z,16.88
2023-03-29T08:52:03.135Z,17.38
2023-03-29T08:54:47.736Z,13.18
2023-03-29T08:57:45.555Z,17.40
2023-03-29T09:00:40.463Z,14.07
2023-03-29T09:03:19.060Z,13.43
2023-03-29T09:05:59.912Z,13.68
2023-03-29T09:08:39.253Z,16.63
2023-03-29T09:11:29.602Z,17.10
2023-03-29T09:17:38.765Z,38.60
2023-03-29T09:20:30.757Z,32.58
2023-03-29T09:23:16.566Z,15.57
2023-03-29T09:26:25.542Z,12.93
2023-03-29T09:29:10.352Z,12.45
2023-03-29T09:31:44.390Z,13.65
2023-03-29T09:34:26.415Z,16.67
2023-03-29T09:37:29.390Z,17.13
2023-03-29T09:40:05.213Z,17.63
2023-03-29T09:42:41.068Z,13.73
2023-03-29T09:45:32.331Z,17.05
2023-03-29T09:48:25.758Z,15.10
2023-03-29T09:51:02.992Z,12.57
2023-03-29T09:53:50.765Z,16.13
2023-03-29T09:56:32.222Z,17.17
2023-03-29T09:59:00.427Z,13.63
2023-03-29T10:01:38.968Z,16.15
2023-03-29T10:04:13.991Z,16.10
2023-03-29T10:06:50.684Z,19.73
2023-03-29T10:09:22.234Z,15.55
2023-03-29T10:11:58.214Z,14.15
2023-03-29T10:14:54.033Z,16.35
2023-03-29T10:17:25.642Z,13.07
2023-03-29T10:19:58.539Z,14.27
2023-03-29T10:22:38.244Z,19.80
2023-03-29T10:25:14.784Z,12.60
2023-03-29T10:27:44.934Z,12.35
2023-03-29T10:30:35.717Z,15.15
2023-03-29T10:33:04.137Z,12.77
2023-03-29T10:35:41.909Z,15.10
2023-03-29T10:38:16.301Z,12.98
2023-03-29T10:40:48.539Z,16.77
2023-03-29T10:43:24.825Z,13.80
2023-03-29T10:45:57.825Z,17.17
2023-03-29T10:48:37.445Z,17.52
2023-03-29T10:51:09.575Z,16.23
2023-03-29T10:53:38.630Z,15.57
2023-03-29T10:56:34.243Z,16.90
2023-03-29T10:59:09.544Z,18.60
2023-03-29T11:01:51.448Z,17.00
2023-03-29T11:04:57.840Z,19.90
2023-03-29T11:07:29.196Z,16.55
2023-03-29T11:10:15.988Z,16.85
2023-03-29T11:13:02.383Z,16.50
2023-03-29T11:15:57.796Z,17.00
2023-03-29T11:18:46.158Z,16.67
2023-03-29T11:21:27.612Z,15.50
2023-03-29T11:23:55.624Z,15.02
2023-03-29T11:26:28.643Z,17.35
2023-03-29T11:29:07.498Z,14.73
2023-03-29T11:32:00.755Z,17.85
2023-03-29T11:34:50.021Z,12.98
2023-03-29T11:37:45.484Z,14.02
2023-03-29T11:40:36.313Z,19.00
2023-03-29T11:43:15.628Z,13.65
2023-03-29T11:46:27.507Z,13.50
2023-03-29T11:49:20.328Z,14.15
2023-03-29T11:52:09.668Z,16.13
2023-03-29T11:54:45.836Z,14.95
2023-03-29T11:57:43.546Z,16.20
2023-03-29T12:00:19.210Z,14.63
2023-03-29T12:02:53.446Z,14.88
2023-03-29T12:05:36.988Z,15.73
2023-03-29T12:08:10.178Z,14.77
2023-03-29T12:10:52.587Z,14.10
2023-03-29T12:13:32.570Z,14.88
2023-03-29T12:18:59.389Z,16.88
2023-03-29T12:21:30.483Z,16.92
2023-03-29T12:23:58.770Z,17.38
2023-03-29T12:26:51.983Z,18.08
2023-03-29T12:29:41.772Z,17.52
2023-03-29T12:32:16.492Z,20.20
2023-03-29T12:35:05.988Z,14.52
2023-03-29T12:37:58.995Z,16.95
2023-03-29T12:40:28.884Z,16.15
2023-03-29T12:43:05.470Z,14.93
2023-03-29T12:45:40.296Z,18.30
2023-03-29T12:48:15.363Z,15.75
2023-03-29T12:51:03.904Z,20.13
2023-03-29T12:53:39.294Z,18.70
2023-03-29T12:56:09.457Z,15.75
2023-03-29T12:59:00.819Z,17.65
2023-03-29T13:01:44.637Z,21.92
2023-03-29T13:04:20.836Z,17.77
2023-03-29T13:07:04.215Z,17.65
2023-03-29T13:09:48.320Z,18.50
2023-03-29T13:12:16.223Z,20.30
2023-03-29T13:14:49.636Z,19.73
2023-03-29T13:17:31.504Z,19.25
2023-03-29T13:20:21.546Z,20.08
2023-03-29T13:25:45.961Z,17.90
2023-03-29T13:28:17.395Z,20.70
2023-03-29T13:31:13.186Z,20.98
2023-03-29T13:34:27.310Z,22.55
2023-03-29T13:37:13.670Z,19.88
2023-03-29T13:39:51.149Z,20.13
2023-03-29T13:42:27.443Z,20.83
2023-03-29T13:45:11.182Z,19.58
2023-03-29T13:47:54.973Z,18.67
2023-03-29T13:50:39.773Z,20.20
2023-03-29T13:53:23.851Z,21.40
2023-03-29T13:55:55.331Z,18.58
2023-03-29T13:58:42.035Z,17.50
2023-03-29T14:01:33.207Z,18.80
2023-03-29T14:04:01.502Z,16.48
2023-03-29T14:06:34.407Z,17.95
2023-03-29T14:09:06.559Z,15.63
2023-03-29T14:11:34.847Z,17.20
2023-03-29T14:14:10.841Z,17.30
2023-03-29T14:16:41.111Z,20.52
2023-03-29T14:19:19.374Z,16.63
2023-03-29T14:21:49.642Z,18.10
2023-03-29T14:24:27.291Z,16.30
2023-03-29T14:26:55.817Z,22.65
2023-03-29T14:29:25.511Z,21.35
2023-03-29T14:31:53.767Z,20.75
2023-03-29T14:34:23.487Z,19.02
2023-03-29T14:36:55.301Z,19.67
2023-03-29T14:39:24.307Z,17.40
2023-03-29T14:41:59.933Z,18.45
2023-03-29T14:44:35.843Z,18.00
2023-03-29T14:47:04.153Z,20.15
2023-03-29T14:49:32.888Z,21.05
2023-03-29T14:52:01.111Z,21.35
2023-03-29T14:54:32.961Z,18.63
2023-03-29T14:57:04.174Z,21.95
2023-03-29T14:59:42.752Z,18.10
2023-03-29T15:02:26.197Z,18.15
2023-03-29T15:05:03.634Z,17.75
2023-03-29T15:07:36.813Z,21.25
2023-03-29T15:10:06.685Z,18.60
2023-03-29T15:12:35.440Z,18.48
2023-03-29T15:15:04.462Z,29.13
2023-03-29T15:17:50.485Z,20.40
2023-03-29T15:20:27.576Z,18.35
2023-03-29T15:23:13.857Z,19.02
2023-03-29T15:25:52.120Z,19.38
2023-03-29T15:28:49.908Z,19.85
2023-03-29T15:31:20.947Z,19.65
2023-03-29T15:33:49.079Z,21.27
2023-03-29T15:36:17.266Z,20.02
2023-03-29T15:38:46.184Z,18.15
2023-03-29T15:41:15.628Z,20.90
2023-03-29T15:43:44.910Z,23.80
2023-03-29T15:46:14.859Z,21.70
2023-03-29T15:51:13.366Z,23.90
2023-03-29T15:53:41.699Z,19.85
2023-03-29T15:56:11.734Z,19.77
2023-03-29T16:01:40.396Z,21.45
2023-03-29T16:04:17.439Z,20.77
2023-03-29T16:06:48.926Z,18.17
2023-03-29T16:09:18.605Z,19.20
2023-03-29T16:11:47.463Z,20.10
2023-03-29T16:14:24.515Z,22.77
2023-03-29T16:16:53.990Z,20.42
2023-03-29T16:19:23.471Z,24.75
2023-03-29T16:21:53.449Z,21.23
2023-03-29T16:26:54.755Z,24.85
2023-03-29T16:29:25.772Z,20.08
2023-03-29T16:31:54.413Z,21.88
2023-03-29T16:34:23.747Z,20.63
2023-03-29T16:36:53.260Z,23.20
2023-03-29T16:39:23.168Z,25.35
2023-03-29T16:41:52.324Z,26.63
2023-03-29T16:44:24.576Z,22.10
2023-03-29T16:46:58.643Z,22.30
2023-03-29T16:49:26.765Z,26.33
2023-03-29T16:51:54.737Z,23.10
2023-03-29T16:54:26.917Z,24.38
2023-03-29T16:56:57.892Z,22.88
2023-03-29T16:59:27.363Z,23.20
2023-03-29T17:01:58.177Z,27.55
2023-03-29T17:04:27.436Z,25.60
2023-03-29T17:06:57.203Z,27.87
2023-03-29T17:09:28.305Z,23.85
2023-03-29T17:11:58.469Z,23.58
2023-03-29T17:14:26.746Z,26.75
2023-03-29T17:16:55.093Z,26.25
2023-03-29T17:19:24.044Z,24.50
2023-03-29T17:21:52.144Z,24.10
2023-03-29T17:24:20.036Z,26.83
2023-03-29T17:26:48.063Z,23.92
2023-03-29T17:29:15.992Z,25.35
2023-03-29T17:31:48.060Z,24.60
2023-03-29T17:34:17.603Z,24.67
2023-03-29T17:36:46.425Z,28.13
2023-03-29T17:39:15.579Z,24.95
2023-03-29T17:41:43.628Z,27.37
2023-03-29T17:44:12.410Z,26.00
2023-03-29T17:46:40.628Z,27.25
2023-03-29T17:49:08.592Z,26.67
2023-03-29T17:51:36.518Z,24.88
2023-03-29T17:54:04.600Z,26.73
2023-03-29T17:56:32.793Z,25.92
2023-03-29T17:59:01.214Z,27.10
2023-03-29T18:01:29.559Z,32.78
2023-03-29T18:03:57.544Z,29.45
2023-03-29T18:06:25.742Z,27.50
2023-03-29T18:08:53.701Z,31.42
2023-03-29T18:11:24.128Z,31.20
2023-03-29T18:13:53.558Z,28.45
2023-03-29T18:16:22.781Z,29.02
2023-03-29T18:18:51.269Z,32.42
2023-03-29T18:21:19.362Z,28.60
2023-03-29T18:23:49.605Z,31.75
2023-03-29T18:26:17.665Z,31.20
2023-03-29T18:28:47.402Z,29.30
2023-03-29T18:31:17.235Z,29.60
2023-03-29T18:33:45.193Z,29.33
2023-03-29T18:36:13.630Z,26.73
2023-03-29T18:38:44.018Z,29.80
2023-03-29T18:41:14.200Z,27.92
2023-03-29T18:46:11.510Z,30.67
2023-03-29T18:48:39.674Z,29.00
2023-03-29T18:51:10.396Z,28.35
2023-03-29T18:53:41.804Z,29.30
2023-03-29T18:56:09.728Z,28.90
2023-03-29T18:58:37.736Z,34.58
2023-03-29T19:01:07.273Z,31.92
2023-03-29T19:03:35.866Z,31.75
2023-03-29T19:06:04.459Z,28.48
2023-03-29T19:08:33.961Z,30.52
2023-03-29T19:11:04.627Z,29.20
2023-03-29T19:13:32.818Z,30.60
2023-03-29T19:16:01.420Z,31.17
2023-03-29T19:18:29.606Z,30.77
2023-03-29T19:20:57.592Z,30.98
2023-03-29T19:23:28.576Z,29.85
2023-03-29T19:26:03.972Z,32.00
2023-03-29T19:28:33.749Z,33.50
2023-03-29T19:31:03.177Z,33.10
2023-03-29T19:33:31.555Z,32.97
2023-03-29T19:35:59.474Z,32.92
2023-03-29T19:38:27.427Z,31.73
2023-03-29T19:40:55.387Z,35.75
2023-03-29T19:43:25.062Z,33.22
2023-03-29T19:45:53.006Z,38.25
2023-03-29T19:48:23.673Z,31.80
2023-03-29T19:50:52.251Z,32.85
2023-03-29T19:53:20.180Z,30.98
2023-03-29T19:55:49.008Z,35.08
2023-03-29T19:58:16.932Z,42.50
2023-03-29T20:00:45.634Z,46.10
2023-03-29T20:03:15.942Z,40.15
2023-03-29T20:05:44.780Z,41.70
2023-03-29T20:08:12.786Z,39.42
2023-03-29T20:10:40.793Z,36.15
2023-03-29T20:13:09.528Z,34.60
2023-03-29T20:15:38.219Z,38.42
2023-03-29T20:18:07.171Z,41.97
2023-03-29T20:20:36.048Z,39.15
2023-03-29T20:23:05.496Z,40.38
2023-03-29T20:25:36.536Z,36.70
2023-03-29T20:28:06.762Z,41.10
2023-03-29T20:30:36.473Z,39.03
2023-03-29T20:33:05.990Z,37.13
2023-03-29T20:35:34.978Z,34.72
2023-03-29T20:38:03.825Z,35.45
2023-03-29T20:40:31.842Z,38.17
2023-03-29T20:42:59.797Z,41.88
2023-03-29T20:45:27.825Z,34.35
2023-03-29T20:48:02.315Z,35.92
2023-03-29T20:50:31.355Z,37.20
2023-03-29T20:53:04.625Z,36.20
2023-03-29T20:55:34.405Z,39.42
2023-03-29T20:58:03.196Z,37.53
2023-03-29T21:00:32.864Z,35.13
2023-03-29T21:03:03.832Z,39.35
2023-03-29T21:05:33.597Z,48.20
2023-03-29T21:08:02.988Z,38.17
2023-03-29T21:10:31.791Z,40.85
2023-03-29T21:13:00.744Z,40.95
2023-03-29T21:15:31.106Z,37.22
2023-03-29T21:18:00.095Z,37.58
2023-03-29T21:20:29.802Z,37.70
2023-03-29T21:22:57.920Z,39.08
2023-03-29T21:25:25.848Z,36.47
2023-03-29T21:27:54.496Z,37.80
2023-03-29T21:30:23.208Z,34.63
2023-03-29T21:32:52.744Z,40.47
2023-03-29T21:35:21.176Z,39.40
2023-03-29T21:37:49.080Z,36.60
2023-03-29T21:40:17.043Z,40.47
2023-03-29T21:42:45.120Z,38.03
2023-03-29T21:45:13.068Z,40.38
2023-03-29T21:47:41.919Z,38.50
2023-03-29T21:50:10.885Z,39.80
2023-03-29T21:52:39.029Z,45.55
2023-03-29T21:55:07.932Z,38.70
2023-03-29T21:57:36.975Z,40.17
2023-03-29T22:00:11.474Z,40.90
2023-03-29T22:02:40.374Z,39.25
2023-03-29T22:05:08.708Z,43.45
2023-03-29T22:07:38.902Z,43.28
2023-03-29T22:12:38.443Z,39.28
2023-03-29T22:15:09.285Z,42.10
2023-03-29T22:17:37.387Z,49.85
2023-03-29T22:20:12.881Z,39.33
2023-03-29T22:22:45.199Z,43.95
2023-03-29T22:25:13.770Z,42.22
2023-03-29T22:27:42.791Z,42.33
2023-03-29T22:30:12.031Z,44.47
2023-03-29T22:32:40.069Z,45.83
2023-03-29T22:35:08.777Z,46.70
2023-03-29T22:37:45.452Z,43.72
2023-03-29T22:40:14.151Z,40.47
2023-03-29T22:42:42.150Z,43.08
2023-03-29T22:45:10.640Z,45.42
2023-03-29T22:47:38.655Z,42.60
2023-03-29T22:50:07.521Z,47.92
2023-03-29T22:52:35.549Z,39.80
2023-03-29T22:55:03.530Z,44.70
2023-03-29T22:57:31.778Z,45.70
2023-03-29T22:59:59.665Z,48.72
2023-03-29T23:02:28.501Z,44.70
2023-03-29T23:04:56.589Z,48.28
2023-03-29T23:07:24.511Z,47.53
2023-03-29T23:09:52.485Z,45.08
2023-03-29T23:12:20.618Z,45.45
2023-03-29T23:14:48.510Z,48.97
2023-03-29T23:17:19.401Z,46.25
2023-03-29T23:19:48.118Z,44.70
2023-03-29T23:22:16.184Z,46.72
2023-03-29T23:24:46.860Z,52.88
2023-03-29T23:27:15.646Z,46.03
2023-03-29T23:29:45.382Z,47.97
2023-03-29T23:32:15.320Z,44.90
2023-03-29T23:34:43.409Z,49.05
2023-03-29T23:37:11.368Z,45.65
2023-03-29T23:39:39.765Z,51.97
2023-03-29T23:42:08.028Z,44.63
2023-03-29T23:44:35.981Z,51.25
2023-03-29T23:47:04.004Z,52.53
2023-03-29T23:49:32.100Z,47.05
2023-03-29T23:52:00.340Z,50.67
2023-03-29T23:54:29.342Z,48.85
2023-03-29T23:56:57.628Z,47.28
2023-03-29T23:59:29.334Z,51.45
